sensor_id;sensor_type;location;lat;lon;timestamp;pressure;altitude;pressure_sealevel;temperature;humidity
5952;BME280;3001;42.622;23.194;2023-09-12T00:01:34;91561.81;;;18.04;66.25
5952;BME280;3001;42.622;23.194;2023-09-12T00:04:01;91558.00;;;18.17;65.43
5952;BME280;3001;42.622;23.194;2023-09-12T00:06:27;91565.63;;;18.22;65.65
5952;BME280;3001;42.622;23.194;2023-09-12T00:08:54;91557.59;;;18.00;65.12
5952;BME280;3001;42.622;23.194;2023-09-12T00:11:21;91555.63;;;18.12;65.48
5952;BME280;3001;42.622;23.194;2023-09-12T00:13:51;91562.59;;;18.20;65.64
5952;BME280;3001;42.622;23.194;2023-09-12T00:16:18;91555.91;;;18.23;65.42
5952;BME280;3001;42.622;23.194;2023-09-12T00:18:46;91555.28;;;18.14;65.84
5952;BME280;3001;42.622;23.194;2023-09-12T00:21:12;91566.31;;;18.19;65.04
5952;BME280;3001;42.622;23.194;2023-09-12T00:23:39;91563.09;;;18.10;65.34
5952;BME280;3001;42.622;23.194;2023-09-12T00:26:07;91561.75;;;18.16;65.14
5952;BME280;3001;42.622;23.194;2023-09-12T00:28:34;91565.38;;;18.12;65.66
5952;BME280;3001;42.622;23.194;2023-09-12T00:31:00;91567.59;;;18.10;66.19
5952;BME280;3001;42.622;23.194;2023-09-12T00:33:27;91573.53;;;18.22;65.58
5952;BME280;3001;42.622;23.194;2023-09-12T00:35:55;91567.94;;;18.24;64.80
5952;BME280;3001;42.622;23.194;2023-09-12T00:38:22;91572.78;;;18.22;65.15
5952;BME280;3001;42.622;23.194;2023-09-12T00:40:49;91563.94;;;18.14;65.52
5952;BME280;3001;42.622;23.194;2023-09-12T00:43:15;91570.72;;;18.00;65.80
5952;BME280;3001;42.622;23.194;2023-09-12T00:45:42;91574.00;;;17.97;66.53
5952;BME280;3001;42.622;23.194;2023-09-12T00:48:09;91572.31;;;17.89;66.22
5952;BME280;3001;42.622;23.194;2023-09-12T00:50:37;91571.78;;;17.83;66.63
5952;BME280;3001;42.622;23.194;2023-09-12T00:53:06;91570.09;;;17.75;67.18
5952;BME280;3001;42.622;23.194;2023-09-12T00:55:36;91570.72;;;17.57;68.03
5952;BME280;3001;42.622;23.194;2023-09-12T00:58:04;91570.84;;;17.76;67.24
5952;BME280;3001;42.622;23.194;2023-09-12T01:00:33;91568.47;;;17.86;67.06
5952;BME280;3001;42.622;23.194;2023-09-12T01:03:00;91566.03;;;17.78;67.33
5952;BME280;3001;42.622;23.194;2023-09-12T01:05:27;91574.25;;;17.92;67.34
5952;BME280;3001;42.622;23.194;2023-09-12T01:07:55;91571.88;;;17.71;67.71
5952;BME280;3001;42.622;23.194;2023-09-12T01:10:23;91575.66;;;17.74;67.88
5952;BME280;3001;42.622;23.194;2023-09-12T01:12:50;91575.88;;;17.53;67.92
5952;BME280;3001;42.622;23.194;2023-09-12T01:15:17;91580.72;;;17.51;68.25
5952;BME280;3001;42.622;23.194;2023-09-12T01:17:44;91578.06;;;17.79;67.28
5952;BME280;3001;42.622;23.194;2023-09-12T01:20:14;91579.69;;;17.56;67.67
5952;BME280;3001;42.622;23.194;2023-09-12T01:22:55;91566.63;;;17.44;68.54
5952;BME280;3001;42.622;23.194;2023-09-12T01:25:45;91585.66;;;17.29;69.23
5952;BME280;3001;42.622;23.194;2023-09-12T01:28:21;91584.94;;;17.56;68.33
5952;BME280;3001;42.622;23.194;2023-09-12T01:30:51;91581.03;;;17.50;68.73
5952;BME280;3001;42.622;23.194;2023-09-12T01:33:18;91581.94;;;17.30;69.74
5952;BME280;3001;42.622;23.194;2023-09-12T01:35:45;91583.59;;;17.35;69.53
5952;BME280;3001;42.622;23.194;2023-09-12T01:38:12;91579.31;;;17.42;69.21
5952;BME280;3001;42.622;23.194;2023-09-12T01:40:43;91577.97;;;17.48;69.19
5952;BME280;3001;42.622;23.194;2023-09-12T01:43:11;91580.19;;;17.46;69.34
5952;BME280;3001;42.622;23.194;2023-09-12T01:45:41;91579.22;;;17.39;69.60
5952;BME280;3001;42.622;23.194;2023-09-12T01:48:08;91580.94;;;17.47;69.47
5952;BME280;3001;42.622;23.194;2023-09-12T01:50:36;91578.13;;;17.67;68.89
5952;BME280;3001;42.622;23.194;2023-09-12T01:53:03;91569.38;;;17.63;69.20
5952;BME280;3001;42.622;23.194;2023-09-12T01:55:30;91571.88;;;17.71;68.34
5952;BME280;3001;42.622;23.194;2023-09-12T01:57:58;91577.06;;;17.56;69.47
5952;BME280;3001;42.622;23.194;2023-09-12T02:00:25;91574.34;;;17.52;68.91
5952;BME280;3001;42.622;23.194;2023-09-12T02:02:53;91581.69;;;17.47;69.04
5952;BME280;3001;42.622;23.194;2023-09-12T02:05:21;91579.50;;;17.49;69.44
5952;BME280;3001;42.622;23.194;2023-09-12T02:07:48;91582.38;;;17.32;70.54
5952;BME280;3001;42.622;23.194;2023-09-12T02:10:15;91578.22;;;17.31;70.03
5952;BME280;3001;42.622;23.194;2023-09-12T02:12:42;91574.13;;;17.18;70.60
5952;BME280;3001;42.622;23.194;2023-09-12T02:15:09;91578.28;;;17.19;70.87
5952;BME280;3001;42.622;23.194;2023-09-12T02:17:37;91582.44;;;17.20;70.35
5952;BME280;3001;42.622;23.194;2023-09-12T02:20:07;91579.13;;;17.23;70.22
5952;BME280;3001;42.622;23.194;2023-09-12T02:22:35;91575.84;;;17.26;70.14
5952;BME280;3001;42.622;23.194;2023-09-12T02:25:02;91584.31;;;17.47;69.23
5952;BME280;3001;42.622;23.194;2023-09-12T02:27:29;91580.00;;;17.39;68.63
5952;BME280;3001;42.622;23.194;2023-09-12T02:29:56;91579.56;;;17.37;69.91
5952;BME280;3001;42.622;23.194;2023-09-12T02:32:23;91571.16;;;17.20;69.47
5952;BME280;3001;42.622;23.194;2023-09-12T02:34:49;91577.50;;;17.19;69.79
5952;BME280;3001;42.622;23.194;2023-09-12T02:37:19;91578.84;;;17.01;70.86
5952;BME280;3001;42.622;23.194;2023-09-12T02:39:46;91578.84;;;17.13;71.08
5952;BME280;3001;42.622;23.194;2023-09-12T02:42:13;91578.88;;;17.28;70.59
5952;BME280;3001;42.622;23.194;2023-09-12T02:44:39;91580.66;;;17.36;71.20
5952;BME280;3001;42.622;23.194;2023-09-12T02:47:06;91584.81;;;17.37;71.40
5952;BME280;3001;42.622;23.194;2023-09-12T02:49:33;91582.28;;;17.41;71.10
5952;BME280;3001;42.622;23.194;2023-09-12T02:52:00;91576.38;;;17.32;71.33
5952;BME280;3001;42.622;23.194;2023-09-12T02:54:28;91577.56;;;17.34;70.92
5952;BME280;3001;42.622;23.194;2023-09-12T02:56:54;91571.13;;;17.32;70.84
5952;BME280;3001;42.622;23.194;2023-09-12T02:59:21;91579.13;;;17.62;69.80
5952;BME280;3001;42.622;23.194;2023-09-12T03:01:47;91578.53;;;17.42;70.68
5952;BME280;3001;42.622;23.194;2023-09-12T03:04:14;91578.13;;;17.40;70.19
5952;BME280;3001;42.622;23.194;2023-09-12T03:06:41;91582.63;;;17.15;71.42
5952;BME280;3001;42.622;23.194;2023-09-12T03:09:09;91584.63;;;17.18;71.12
5952;BME280;3001;42.622;23.194;2023-09-12T03:11:37;91567.00;;;17.19;71.45
5952;BME280;3001;42.622;23.194;2023-09-12T03:14:04;91583.41;;;17.16;71.03
5952;BME280;3001;42.622;23.194;2023-09-12T03:16:31;91576.25;;;17.28;70.47
5952;BME280;3001;42.622;23.194;2023-09-12T03:18:58;91577.47;;;17.31;70.61
5952;BME280;3001;42.622;23.194;2023-09-12T03:21:26;91584.81;;;17.25;70.41
5952;BME280;3001;42.622;23.194;2023-09-12T03:23:53;91583.09;;;17.17;69.89
5952;BME280;3001;42.622;23.194;2023-09-12T03:26:19;91580.00;;;17.15;69.99
5952;BME280;3001;42.622;23.194;2023-09-12T03:28:48;91582.69;;;17.03;70.21
5952;BME280;3001;42.622;23.194;2023-09-12T03:31:15;91582.00;;;17.06;69.89
5952;BME280;3001;42.622;23.194;2023-09-12T03:33:43;91591.28;;;17.16;70.14
5952;BME280;3001;42.622;23.194;2023-09-12T03:36:13;91579.16;;;17.11;69.97
5952;BME280;3001;42.622;23.194;2023-09-12T03:38:40;91592.50;;;17.18;69.82
5952;BME280;3001;42.622;23.194;2023-09-12T03:41:06;91585.25;;;17.27;69.87
5952;BME280;3001;42.622;23.194;2023-09-12T03:43:33;91591.09;;;17.48;69.05
5952;BME280;3001;42.622;23.194;2023-09-12T03:46:01;91589.59;;;17.47;68.56
5952;BME280;3001;42.622;23.194;2023-09-12T03:48:28;91587.50;;;17.52;68.46
5952;BME280;3001;42.622;23.194;2023-09-12T03:50:56;91592.22;;;17.35;69.46
5952;BME280;3001;42.622;23.194;2023-09-12T03:53:22;91590.72;;;17.22;69.80
5952;BME280;3001;42.622;23.194;2023-09-12T03:55:49;91593.19;;;17.03;70.60
5952;BME280;3001;42.622;23.194;2023-09-12T03:58:16;91583.03;;;16.90;71.65
5952;BME280;3001;42.622;23.194;2023-09-12T04:00:42;91584.88;;;16.89;72.28
5952;BME280;3001;42.622;23.194;2023-09-12T04:03:10;91589.47;;;16.92;71.90
5952;BME280;3001;42.622;23.194;2023-09-12T04:05:37;91590.13;;;16.89;72.43
5952;BME280;3001;42.622;23.194;2023-09-12T04:08:04;91586.53;;;16.94;71.64
5952;BME280;3001;42.622;23.194;2023-09-12T04:10:31;91585.31;;;17.03;71.14
5952;BME280;3001;42.622;23.194;2023-09-12T04:12:58;91586.22;;;16.95;70.81
5952;BME280;3001;42.622;23.194;2023-09-12T04:15:25;91592.41;;;17.03;70.80
5952;BME280;3001;42.622;23.194;2023-09-12T04:17:52;91595.00;;;17.15;70.74
5952;BME280;3001;42.622;23.194;2023-09-12T04:20:20;91594.22;;;17.14;69.70
5952;BME280;3001;42.622;23.194;2023-09-12T04:22:46;91587.81;;;17.12;69.08
5952;BME280;3001;42.622;23.194;2023-09-12T04:25:13;91588.34;;;17.05;69.97
5952;BME280;3001;42.622;23.194;2023-09-12T04:27:41;91586.88;;;17.32;69.18
5952;BME280;3001;42.622;23.194;2023-09-12T04:30:08;91604.34;;;17.00;69.96
5952;BME280;3001;42.622;23.194;2023-09-12T04:32:35;91601.47;;;17.17;69.24
5952;BME280;3001;42.622;23.194;2023-09-12T04:35:02;91598.84;;;17.17;69.85
5952;BME280;3001;42.622;23.194;2023-09-12T04:37:30;91608.38;;;17.10;70.04
5952;BME280;3001;42.622;23.194;2023-09-12T04:39:57;91605.66;;;16.94;70.21
5952;BME280;3001;42.622;23.194;2023-09-12T04:42:24;91594.28;;;16.90;71.07
5952;BME280;3001;42.622;23.194;2023-09-12T04:44:50;91605.13;;;16.89;71.15
5952;BME280;3001;42.622;23.194;2023-09-12T04:47:17;91600.50;;;16.98;70.80
5952;BME280;3001;42.622;23.194;2023-09-12T04:49:44;91604.34;;;17.00;71.40
5952;BME280;3001;42.622;23.194;2023-09-12T04:52:11;91608.16;;;17.03;70.75
5952;BME280;3001;42.622;23.194;2023-09-12T04:54:39;91604.88;;;17.06;71.09
5952;BME280;3001;42.622;23.194;2023-09-12T04:57:05;91609.91;;;16.99;71.55
5952;BME280;3001;42.622;23.194;2023-09-12T04:59:32;91605.44;;;16.87;72.07
5952;BME280;3001;42.622;23.194;2023-09-12T05:01:59;91607.84;;;16.92;72.18
5952;BME280;3001;42.622;23.194;2023-09-12T05:04:25;91604.34;;;16.88;72.83
5952;BME280;3001;42.622;23.194;2023-09-12T05:06:52;91608.50;;;16.89;73.21
5952;BME280;3001;42.622;23.194;2023-09-12T05:09:19;91616.06;;;16.91;73.28
5952;BME280;3001;42.622;23.194;2023-09-12T05:11:47;91615.41;;;16.94;73.59
5952;BME280;3001;42.622;23.194;2023-09-12T05:14:14;91616.38;;;17.01;73.64
5952;BME280;3001;42.622;23.194;2023-09-12T05:16:41;91614.63;;;16.93;74.25
5952;BME280;3001;42.622;23.194;2023-09-12T05:19:07;91611.22;;;17.05;74.42
5952;BME280;3001;42.622;23.194;2023-09-12T05:21:34;91618.75;;;17.06;74.46
5952;BME280;3001;42.622;23.194;2023-09-12T05:24:01;91619.75;;;17.02;74.94
5952;BME280;3001;42.622;23.194;2023-09-12T05:26:27;91619.53;;;17.07;75.55
5952;BME280;3001;42.622;23.194;2023-09-12T05:28:55;91606.41;;;17.07;75.21
5952;BME280;3001;42.622;23.194;2023-09-12T05:31:22;91611.88;;;17.02;75.88
5952;BME280;3001;42.622;23.194;2023-09-12T05:33:49;91603.00;;;17.06;76.06
5952;BME280;3001;42.622;23.194;2023-09-12T05:36:15;91619.53;;;17.07;76.34
5952;BME280;3001;42.622;23.194;2023-09-12T05:38:42;91615.47;;;17.09;76.89
5952;BME280;3001;42.622;23.194;2023-09-12T05:41:09;91610.22;;;17.09;77.64
5952;BME280;3001;42.622;23.194;2023-09-12T05:43:36;91615.47;;;17.09;77.90
5952;BME280;3001;42.622;23.194;2023-09-12T05:46:04;91618.34;;;17.04;78.36
5952;BME280;3001;42.622;23.194;2023-09-12T05:48:30;91615.59;;;17.01;79.10
5952;BME280;3001;42.622;23.194;2023-09-12T05:50:57;91619.25;;;17.24;78.50
5952;BME280;3001;42.622;23.194;2023-09-12T05:53:24;91614.13;;;17.27;78.03
5952;BME280;3001;42.622;23.194;2023-09-12T05:55:50;91611.25;;;17.32;78.32
5952;BME280;3001;42.622;23.194;2023-09-12T05:58:17;91604.91;;;17.45;78.00
5952;BME280;3001;42.622;23.194;2023-09-12T06:00:44;91606.19;;;17.51;77.85
5952;BME280;3001;42.622;23.194;2023-09-12T06:03:15;91615.03;;;17.58;77.57
5952;BME280;3001;42.622;23.194;2023-09-12T06:05:42;91618.09;;;17.60;78.25
5952;BME280;3001;42.622;23.194;2023-09-12T06:08:08;91615.09;;;17.47;79.39
5952;BME280;3001;42.622;23.194;2023-09-12T06:10:36;91625.97;;;17.60;79.21
5952;BME280;3001;42.622;23.194;2023-09-12T06:13:03;91618.94;;;17.64;79.33
5952;BME280;3001;42.622;23.194;2023-09-12T06:15:29;91617.28;;;17.72;80.24
5952;BME280;3001;42.622;23.194;2023-09-12T06:17:56;91624.88;;;17.89;79.35
5952;BME280;3001;42.622;23.194;2023-09-12T06:20:24;91624.31;;;17.95;79.18
5952;BME280;3001;42.622;23.194;2023-09-12T06:22:51;91630.31;;;17.96;80.12
5952;BME280;3001;42.622;23.194;2023-09-12T06:25:17;91629.84;;;18.06;80.34
5952;BME280;3001;42.622;23.194;2023-09-12T06:27:43;91634.41;;;18.09;80.32
5952;BME280;3001;42.622;23.194;2023-09-12T06:30:11;91631.25;;;18.03;80.92
5952;BME280;3001;42.622;23.194;2023-09-12T06:32:38;91634.56;;;18.28;79.27
5952;BME280;3001;42.622;23.194;2023-09-12T06:35:06;91641.94;;;18.38;77.05
5952;BME280;3001;42.622;23.194;2023-09-12T06:37:34;91644.09;;;18.48;77.02
5952;BME280;3001;42.622;23.194;2023-09-12T06:40:01;91644.75;;;18.60;77.87
5952;BME280;3001;42.622;23.194;2023-09-12T06:42:28;91645.53;;;18.61;77.52
5952;BME280;3001;42.622;23.194;2023-09-12T06:44:55;91639.56;;;18.79;77.29
5952;BME280;3001;42.622;23.194;2023-09-12T06:47:21;91650.78;;;18.92;75.44
5952;BME280;3001;42.622;23.194;2023-09-12T06:49:48;91650.50;;;18.97;76.78
5952;BME280;3001;42.622;23.194;2023-09-12T06:52:14;91646.00;;;19.13;76.83
5952;BME280;3001;42.622;23.194;2023-09-12T06:54:42;91639.13;;;19.24;78.28
5952;BME280;3001;42.622;23.194;2023-09-12T06:57:09;91648.84;;;19.38;76.52
5952;BME280;3001;42.622;23.194;2023-09-12T06:59:36;91653.59;;;19.48;77.86
5952;BME280;3001;42.622;23.194;2023-09-12T07:02:03;91654.31;;;19.64;76.06
5952;BME280;3001;42.622;23.194;2023-09-12T07:04:30;91661.59;;;19.71;73.58
5952;BME280;3001;42.622;23.194;2023-09-12T07:06:56;91663.16;;;19.75;73.91
5952;BME280;3001;42.622;23.194;2023-09-12T07:09:23;91660.53;;;19.94;73.45
5952;BME280;3001;42.622;23.194;2023-09-12T07:11:51;91663.59;;;19.96;73.54
5952;BME280;3001;42.622;23.194;2023-09-12T07:14:18;91665.31;;;20.04;72.98
5952;BME280;3001;42.622;23.194;2023-09-12T07:16:46;91664.03;;;20.17;74.67
5952;BME280;3001;42.622;23.194;2023-09-12T07:19:12;91660.69;;;20.20;73.10
5952;BME280;3001;42.622;23.194;2023-09-12T07:21:39;91665.03;;;20.32;70.91
5952;BME280;3001;42.622;23.194;2023-09-12T07:24:06;91668.25;;;20.41;70.77
5952;BME280;3001;42.622;23.194;2023-09-12T07:26:33;91656.53;;;20.61;68.12
5952;BME280;3001;42.622;23.194;2023-09-12T07:29:01;91671.69;;;20.86;61.63
5952;BME280;3001;42.622;23.194;2023-09-12T07:31:30;91668.88;;;20.98;64.69
5952;BME280;3001;42.622;23.194;2023-09-12T07:33:56;91676.84;;;21.24;59.35
5952;BME280;3001;42.622;23.194;2023-09-12T07:36:23;91675.50;;;21.37;57.65
5952;BME280;3001;42.622;23.194;2023-09-12T07:38:49;91685.81;;;21.71;56.74
5952;BME280;3001;42.622;23.194;2023-09-12T07:41:16;91679.13;;;21.77;57.06
5952;BME280;3001;42.622;23.194;2023-09-12T07:43:44;91678.63;;;21.98;58.32
5952;BME280;3001;42.622;23.194;2023-09-12T07:46:12;91672.78;;;22.15;57.49
5952;BME280;3001;42.622;23.194;2023-09-12T07:48:39;91672.22;;;22.32;56.04
5952;BME280;3001;42.622;23.194;2023-09-12T07:51:11;91669.06;;;22.19;56.54
5952;BME280;3001;42.622;23.194;2023-09-12T07:53:39;91667.03;;;22.39;56.05
5952;BME280;3001;42.622;23.194;2023-09-12T07:56:06;91678.09;;;22.48;56.42
5952;BME280;3001;42.622;23.194;2023-09-12T07:58:34;91672.91;;;22.58;53.52
5952;BME280;3001;42.622;23.194;2023-09-12T08:01:04;91677.59;;;22.75;53.72
5952;BME280;3001;42.622;23.194;2023-09-12T08:03:33;91674.81;;;23.01;48.20
5952;BME280;3001;42.622;23.194;2023-09-12T08:05:59;91683.69;;;23.15;49.13
5952;BME280;3001;42.622;23.194;2023-09-12T08:08:26;91681.06;;;23.22;49.92
5952;BME280;3001;42.622;23.194;2023-09-12T08:10:53;91686.94;;;23.49;47.47
5952;BME280;3001;42.622;23.194;2023-09-12T08:13:19;91690.91;;;23.72;47.02
5952;BME280;3001;42.622;23.194;2023-09-12T08:15:46;91682.72;;;23.98;48.08
5952;BME280;3001;42.622;23.194;2023-09-12T08:18:13;91689.28;;;24.18;48.96
5952;BME280;3001;42.622;23.194;2023-09-12T08:20:42;91690.84;;;24.30;49.67
5952;BME280;3001;42.622;23.194;2023-09-12T08:23:08;91691.63;;;24.44;48.19
5952;BME280;3001;42.622;23.194;2023-09-12T08:25:35;91693.16;;;24.42;45.62
5952;BME280;3001;42.622;23.194;2023-09-12T08:28:02;91692.47;;;24.55;47.07
5952;BME280;3001;42.622;23.194;2023-09-12T08:30:29;91682.25;;;24.75;47.06
5952;BME280;3001;42.622;23.194;2023-09-12T08:32:55;91688.38;;;24.99;49.23
5952;BME280;3001;42.622;23.194;2023-09-12T08:35:22;91681.53;;;24.98;47.99
5952;BME280;3001;42.622;23.194;2023-09-12T08:37:50;91676.66;;;25.18;48.99
5952;BME280;3001;42.622;23.194;2023-09-12T08:40:17;91680.41;;;25.13;44.94
5952;BME280;3001;42.622;23.194;2023-09-12T08:42:44;91681.97;;;25.39;46.17
5952;BME280;3001;42.622;23.194;2023-09-12T08:45:14;91663.34;;;25.53;46.60
5952;BME280;3001;42.622;23.194;2023-09-12T08:47:42;91673.59;;;25.68;47.84
5952;BME280;3001;42.622;23.194;2023-09-12T08:50:10;91679.28;;;25.81;45.96
5952;BME280;3001;42.622;23.194;2023-09-12T08:52:39;91680.78;;;25.89;46.16
5952;BME280;3001;42.622;23.194;2023-09-12T08:55:08;91681.16;;;25.98;45.50
5952;BME280;3001;42.622;23.194;2023-09-12T08:57:36;91674.28;;;26.11;44.96
5952;BME280;3001;42.622;23.194;2023-09-12T09:00:06;91684.47;;;26.33;44.14
5952;BME280;3001;42.622;23.194;2023-09-12T09:02:35;91682.94;;;26.36;45.16
5952;BME280;3001;42.622;23.194;2023-09-12T09:05:04;91671.47;;;26.53;45.12
5952;BME280;3001;42.622;23.194;2023-09-12T09:07:33;91682.44;;;26.65;44.67
5952;BME280;3001;42.622;23.194;2023-09-12T09:10:02;91686.59;;;26.73;44.74
5952;BME280;3001;42.622;23.194;2023-09-12T09:12:31;91684.25;;;26.82;45.77
5952;BME280;3001;42.622;23.194;2023-09-12T09:14:58;91685.28;;;27.02;41.79
5952;BME280;3001;42.622;23.194;2023-09-12T09:17:26;91683.81;;;26.97;43.29
5952;BME280;3001;42.622;23.194;2023-09-12T09:19:52;91682.19;;;27.17;41.65
5952;BME280;3001;42.622;23.194;2023-09-12T09:22:20;91675.34;;;27.13;42.57
5952;BME280;3001;42.622;23.194;2023-09-12T09:24:48;91679.38;;;27.35;42.56
5952;BME280;3001;42.622;23.194;2023-09-12T09:27:33;91678.06;;;27.53;42.25
5952;BME280;3001;42.622;23.194;2023-09-12T09:30:01;91673.38;;;27.71;41.83
5952;BME280;3001;42.622;23.194;2023-09-12T09:32:28;91674.06;;;27.79;41.80
5952;BME280;3001;42.622;23.194;2023-09-12T09:34:55;91676.81;;;28.09;41.29
5952;BME280;3001;42.622;23.194;2023-09-12T09:37:22;91678.41;;;28.03;41.90
5952;BME280;3001;42.622;23.194;2023-09-12T09:39:49;91674.47;;;28.14;41.12
5952;BME280;3001;42.622;23.194;2023-09-12T09:42:17;91680.44;;;28.29;39.50
5952;BME280;3001;42.622;23.194;2023-09-12T09:44:45;91681.94;;;28.30;38.28
5952;BME280;3001;42.622;23.194;2023-09-12T09:47:12;91679.91;;;28.41;39.63
5952;BME280;3001;42.622;23.194;2023-09-12T09:49:39;91676.13;;;28.38;40.52
5952;BME280;3001;42.622;23.194;2023-09-12T09:52:05;91669.50;;;28.50;40.34
5952;BME280;3001;42.622;23.194;2023-09-12T09:54:32;91675.81;;;28.62;37.82
5952;BME280;3001;42.622;23.194;2023-09-12T09:56:59;91680.16;;;28.83;37.81
5952;BME280;3001;42.622;23.194;2023-09-12T09:59:27;91665.16;;;28.92;38.97
5952;BME280;3001;42.622;23.194;2023-09-12T10:01:56;91671.59;;;28.95;38.37
5952;BME280;3001;42.622;23.194;2023-09-12T10:04:23;91661.06;;;29.11;39.22
5952;BME280;3001;42.622;23.194;2023-09-12T10:06:50;91664.69;;;29.24;37.89
5952;BME280;3001;42.622;23.194;2023-09-12T10:09:20;91663.81;;;29.30;38.30
5952;BME280;3001;42.622;23.194;2023-09-12T10:11:51;91662.56;;;29.38;37.84
5952;BME280;3001;42.622;23.194;2023-09-12T10:14:19;91662.28;;;29.56;34.58
5952;BME280;3001;42.622;23.194;2023-09-12T10:16:48;91660.38;;;29.56;37.75
5952;BME280;3001;42.622;23.194;2023-09-12T10:19:20;91652.53;;;29.19;36.76
5952;BME280;3001;42.622;23.194;2023-09-12T10:21:50;91655.50;;;29.74;36.16
5952;BME280;3001;42.622;23.194;2023-09-12T10:24:21;91649.94;;;29.85;36.21
5952;BME280;3001;42.622;23.194;2023-09-12T10:26:50;91647.19;;;29.88;37.21
5952;BME280;3001;42.622;23.194;2023-09-12T10:29:16;91651.59;;;30.21;36.84
5952;BME280;3001;42.622;23.194;2023-09-12T10:31:43;91653.59;;;30.17;37.27
5952;BME280;3001;42.622;23.194;2023-09-12T10:34:12;91649.63;;;30.45;35.53
5952;BME280;3001;42.622;23.194;2023-09-12T10:36:41;91652.97;;;30.68;33.63
5952;BME280;3001;42.622;23.194;2023-09-12T10:39:09;91654.16;;;30.67;33.39
5952;BME280;3001;42.622;23.194;2023-09-12T10:41:37;91655.25;;;30.69;34.50
5952;BME280;3001;42.622;23.194;2023-09-12T10:44:07;91643.59;;;30.95;35.27
5952;BME280;3001;42.622;23.194;2023-09-12T10:46:36;91642.91;;;30.91;36.09
5952;BME280;3001;42.622;23.194;2023-09-12T10:49:06;91640.97;;;30.92;32.78
5952;BME280;3001;42.622;23.194;2023-09-12T10:51:34;91635.88;;;30.97;33.12
5952;BME280;3001;42.622;23.194;2023-09-12T10:54:05;91632.28;;;31.04;33.98
5952;BME280;3001;42.622;23.194;2023-09-12T10:56:33;91637.91;;;31.09;32.40
5952;BME280;3001;42.622;23.194;2023-09-12T10:59:10;91634.00;;;31.30;32.25
5952;BME280;3001;42.622;23.194;2023-09-12T11:01:39;91636.50;;;31.53;33.69
5952;BME280;3001;42.622;23.194;2023-09-12T11:04:31;91623.00;;;31.24;33.25
5952;BME280;3001;42.622;23.194;2023-09-12T11:06:59;91625.63;;;31.44;32.65
5952;BME280;3001;42.622;23.194;2023-09-12T11:09:28;91616.47;;;31.57;33.09
5952;BME280;3001;42.622;23.194;2023-09-12T11:11:57;91632.34;;;31.68;32.49
5952;BME280;3001;42.622;23.194;2023-09-12T11:14:24;91626.56;;;31.69;31.58
5952;BME280;3001;42.622;23.194;2023-09-12T11:17:25;91625.06;;;31.68;31.96
5952;BME280;3001;42.622;23.194;2023-09-12T11:19:53;91629.25;;;31.69;32.20
5952;BME280;3001;42.622;23.194;2023-09-12T11:22:22;91623.34;;;31.74;32.53
5952;BME280;3001;42.622;23.194;2023-09-12T11:24:50;91629.63;;;32.00;31.92
5952;BME280;3001;42.622;23.194;2023-09-12T11:27:17;91632.06;;;31.94;32.48
5952;BME280;3001;42.622;23.194;2023-09-12T11:29:43;91628.84;;;31.99;32.20
5952;BME280;3001;42.622;23.194;2023-09-12T11:32:10;91631.53;;;31.99;30.88
5952;BME280;3001;42.622;23.194;2023-09-12T11:34:51;91611.16;;;31.86;30.05
5952;BME280;3001;42.622;23.194;2023-09-12T11:37:23;91623.81;;;32.01;30.93
5952;BME280;3001;42.622;23.194;2023-09-12T11:39:51;91614.56;;;32.02;31.59
5952;BME280;3001;42.622;23.194;2023-09-12T11:42:19;91611.94;;;31.86;31.10
5952;BME280;3001;42.622;23.194;2023-09-12T11:44:49;91617.03;;;32.25;30.10
5952;BME280;3001;42.622;23.194;2023-09-12T11:47:17;91610.81;;;32.28;31.11
5952;BME280;3001;42.622;23.194;2023-09-12T11:49:43;91615.63;;;32.21;31.03
5952;BME280;3001;42.622;23.194;2023-09-12T11:52:11;91613.28;;;32.07;29.66
5952;BME280;3001;42.622;23.194;2023-09-12T11:54:39;91616.25;;;31.96;28.64
5952;BME280;3001;42.622;23.194;2023-09-12T11:57:09;91607.16;;;32.06;31.02
5952;BME280;3001;42.622;23.194;2023-09-12T11:59:39;91612.53;;;32.06;31.14
5952;BME280;3001;42.622;23.194;2023-09-12T12:02:07;91601.03;;;32.34;30.85
5952;BME280;3001;42.622;23.194;2023-09-12T12:04:34;91596.88;;;32.45;30.88
5952;BME280;3001;42.622;23.194;2023-09-12T12:07:02;91592.50;;;32.23;30.76
5952;BME280;3001;42.622;23.194;2023-09-12T12:09:29;91598.38;;;32.46;31.31
5952;BME280;3001;42.622;23.194;2023-09-12T12:11:56;91595.50;;;32.66;30.63
5952;BME280;3001;42.622;23.194;2023-09-12T12:14:27;91597.53;;;32.62;30.54
5952;BME280;3001;42.622;23.194;2023-09-12T12:16:54;91601.41;;;32.61;30.21
5952;BME280;3001;42.622;23.194;2023-09-12T12:19:21;91594.47;;;32.88;29.64
5952;BME280;3001;42.622;23.194;2023-09-12T12:21:48;91598.47;;;32.96;30.95
5952;BME280;3001;42.622;23.194;2023-09-12T12:24:15;91599.00;;;32.91;29.90
5952;BME280;3001;42.622;23.194;2023-09-12T12:26:42;91599.78;;;32.92;29.36
5952;BME280;3001;42.622;23.194;2023-09-12T12:29:10;91599.22;;;32.84;28.87
5952;BME280;3001;42.622;23.194;2023-09-12T12:31:40;91593.75;;;33.00;29.64
5952;BME280;3001;42.622;23.194;2023-09-12T12:34:06;91602.69;;;33.10;29.38
5952;BME280;3001;42.622;23.194;2023-09-12T12:36:41;91595.56;;;33.03;29.33
5952;BME280;3001;42.622;23.194;2023-09-12T12:39:10;91594.47;;;33.13;29.39
5952;BME280;3001;42.622;23.194;2023-09-12T12:41:37;91594.81;;;33.03;28.77
5952;BME280;3001;42.622;23.194;2023-09-12T12:44:04;91596.94;;;33.08;27.29
5952;BME280;3001;42.622;23.194;2023-09-12T12:46:32;91595.44;;;32.69;26.80
5952;BME280;3001;42.622;23.194;2023-09-12T12:49:00;91585.78;;;32.84;29.54
5952;BME280;3001;42.622;23.194;2023-09-12T12:51:28;91586.63;;;32.81;29.09
5952;BME280;3001;42.622;23.194;2023-09-12T12:54:03;91581.16;;;33.10;29.14
5952;BME280;3001;42.622;23.194;2023-09-12T12:56:30;91580.28;;;33.13;29.41
5952;BME280;3001;42.622;23.194;2023-09-12T12:58:58;91576.66;;;33.19;30.04
5952;BME280;3001;42.622;23.194;2023-09-12T13:01:27;91571.56;;;33.21;29.58
5952;BME280;3001;42.622;23.194;2023-09-12T13:03:54;91573.50;;;33.21;29.61
5952;BME280;3001;42.622;23.194;2023-09-12T13:06:23;91581.25;;;33.19;29.45
5952;BME280;3001;42.622;23.194;2023-09-12T13:08:52;91576.41;;;33.26;30.09
5952;BME280;3001;42.622;23.194;2023-09-12T13:11:19;91576.41;;;33.26;28.10
5952;BME280;3001;42.622;23.194;2023-09-12T13:13:47;91563.56;;;33.30;30.06